Terminal Aerodrome Forecast
Issued by NWS

Home | Current Version | Previous Version | Text Only | Print | Product List | Glossary On
Versions: 1 2 3 4 5 6 7 8 9 10 11 12 13 14 15 16 17 18 19 20 21 22 23 24
645
FTUS41 KBUF 230836 AAA
TAFIAG
TAF AMD
KIAG 230836Z 2309/2406 27008KT P6SM SKC
     FM231400 26015G22KT P6SM SCT045
     FM231700 26016G24KT P6SM BKN045
     FM232300 30011KT P6SM SCT045
     FM240300 30006KT P6SM SCT045=

USA.gov is the U.S. government's official web portal to all federal, state and local government web resources and services.